createdAt,value
2019-03-22T00:00:02.888Z,5.72
2019-03-22T00:01:02.876Z,5.69
2019-03-22T00:02:02.874Z,5.73
2019-03-22T00:03:02.868Z,5.65
2019-03-22T00:04:02.854Z,5.71
2019-03-22T00:05:02.762Z,5.64
2019-03-22T00:06:02.844Z,5.62
2019-03-22T00:07:02.853Z,5.64
2019-03-22T00:08:02.827Z,5.62
2019-03-22T00:09:02.823Z,5.57
2019-03-22T00:10:02.586Z,5.5
2019-03-22T00:11:02.566Z,5.53
2019-03-22T00:12:04.247Z,5.62
2019-03-22T00:13:02.527Z,5.53
2019-03-22T00:14:02.288Z,5.48
2019-03-22T00:15:02.786Z,5.57
2019-03-22T00:16:02.766Z,5.46
2019-03-22T00:17:02.762Z,5.48
2019-03-22T00:18:02.486Z,5.47
2019-03-22T00:19:02.240Z,5.47
2019-03-22T00:20:02.771Z,5.41
2019-03-22T00:21:02.706Z,5.38
2019-03-22T00:22:02.709Z,5.39
2019-03-22T00:23:02.686Z,5.35
2019-03-22T00:24:02.691Z,5.43
2019-03-22T00:25:02.501Z,5.43
2019-03-22T00:26:02.660Z,5.32
2019-03-22T00:27:02.656Z,5.36
2019-03-22T00:28:02.414Z,5.33
2019-03-22T00:29:02.631Z,5.33
2019-03-22T00:30:02.798Z,5.41
2019-03-22T00:31:02.621Z,5.41
2019-03-22T00:32:02.358Z,5.39
2019-03-22T00:33:02.596Z,5.43
2019-03-22T00:34:02.342Z,5.41
2019-03-22T00:35:02.802Z,5.38
2019-03-22T00:36:02.569Z,5.39
2019-03-22T00:37:02.566Z,5.3
2019-03-22T00:38:02.609Z,5.32
2019-03-22T00:39:02.050Z,5.3
2019-03-22T00:40:02.773Z,5.38
2019-03-22T00:41:02.284Z,5.32
2019-03-22T00:42:02.269Z,5.3
2019-03-22T00:43:02.260Z,5.35
2019-03-22T00:44:02.010Z,5.32
2019-03-22T00:45:02.490Z,5.28
2019-03-22T00:46:02.485Z,5.28
2019-03-22T00:47:02.234Z,5.3
2019-03-22T00:48:01.977Z,5.29
2019-03-22T00:49:02.448Z,5.36
2019-03-22T00:50:02.453Z,5.41
2019-03-22T00:51:02.206Z,5.35
2019-03-22T00:52:01.955Z,5.38
2019-03-22T00:53:01.936Z,5.29
2019-03-22T00:54:02.188Z,5.25
2019-03-22T00:55:02.165Z,5.33
2019-03-22T00:56:01.889Z,5.15
2019-03-22T00:57:01.882Z,5.12
2019-03-22T00:58:01.896Z,5.07
2019-03-22T00:59:02.108Z,5.1
2019-03-22T01:00:02.123Z,5.05
2019-03-22T01:01:01.864Z,5.07
2019-03-22T01:02:02.337Z,5.1
2019-03-22T01:03:02.089Z,5.04
2019-03-22T01:04:02.067Z,5.05
2019-03-22T01:05:02.068Z,5.08
2019-03-22T01:06:01.817Z,5.08
2019-03-22T01:07:02.043Z,5.07
2019-03-22T01:08:02.036Z,5.02
2019-03-22T01:09:02.026Z,5.02
2019-03-22T01:10:02.013Z,4.97
2019-03-22T01:11:02.262Z,5
2019-03-22T01:12:01.993Z,4.96
2019-03-22T01:13:01.987Z,4.94
2019-03-22T01:14:01.740Z,4.99
2019-03-22T01:15:01.972Z,4.96
2019-03-22T01:16:01.957Z,4.93
2019-03-22T01:17:02.220Z,4.97
2019-03-22T01:18:01.944Z,4.87
2019-03-22T01:19:02.212Z,4.9
2019-03-22T01:20:01.929Z,4.89
2019-03-22T01:21:01.914Z,4.97
2019-03-22T01:22:01.905Z,4.92
2019-03-22T01:23:01.905Z,4.96
2019-03-22T01:24:04.541Z,4.96
2019-03-22T01:25:01.876Z,5
2019-03-22T01:26:01.871Z,4.94
2019-03-22T01:27:01.869Z,5
2019-03-22T01:28:01.865Z,4.96
2019-03-22T01:29:01.840Z,4.9
2019-03-22T01:30:02.079Z,4.9
2019-03-22T01:31:01.833Z,4.89
2019-03-22T01:32:02.062Z,4.9
2019-03-22T01:33:02.068Z,4.78
2019-03-22T01:34:01.803Z,4.93
2019-03-22T01:35:01.780Z,4.84
2019-03-22T01:36:01.780Z,4.84
2019-03-22T01:37:01.766Z,4.78
2019-03-22T01:38:02.023Z,4.86
2019-03-22T01:39:01.510Z,4.86
2019-03-22T01:40:01.997Z,4.84
2019-03-22T01:41:02.047Z,4.77
2019-03-22T01:42:01.496Z,4.78
2019-03-22T01:43:01.706Z,4.74
2019-03-22T01:44:01.951Z,4.82
2019-03-22T01:45:01.450Z,4.75
2019-03-22T01:46:01.738Z,4.74
2019-03-22T01:47:01.917Z,4.87
2019-03-22T01:48:01.423Z,4.8
2019-03-22T01:49:01.896Z,4.75
2019-03-22T01:50:01.898Z,4.73
2019-03-22T01:51:01.890Z,4.75
2019-03-22T01:52:01.614Z,4.66
2019-03-22T01:53:01.890Z,4.63
2019-03-22T01:54:02.667Z,4.58
2019-03-22T01:55:01.865Z,4.66
2019-03-22T01:56:01.575Z,4.62
2019-03-22T01:57:01.568Z,4.6
2019-03-22T01:58:01.820Z,4.59
2019-03-22T01:59:01.546Z,4.53
2019-03-22T02:00:01.799Z,4.5
2019-03-22T02:01:01.844Z,4.45
2019-03-22T02:02:01.529Z,4.44
2019-03-22T02:03:01.313Z,4.38
2019-03-22T02:04:01.522Z,4.45
2019-03-22T02:05:01.494Z,4.5
2019-03-22T02:06:01.799Z,4.5
2019-03-22T02:07:01.253Z,4.48
2019-03-22T02:08:01.719Z,4.38
2019-03-22T02:09:01.730Z,4.42
2019-03-22T02:10:01.775Z,4.4
2019-03-22T02:11:01.444Z,4.32
2019-03-22T02:12:01.691Z,4.34
2019-03-22T02:13:01.435Z,4.38
2019-03-22T02:14:01.168Z,4.31
2019-03-22T02:15:01.666Z,4.26
2019-03-22T02:16:01.406Z,4.24
2019-03-22T02:17:01.387Z,4.3
2019-03-22T02:18:01.619Z,4.26
2019-03-22T02:19:01.358Z,4.26
2019-03-22T02:20:01.373Z,4.32
2019-03-22T02:21:01.595Z,4.23
2019-03-22T02:22:01.345Z,4.37
2019-03-22T02:23:01.349Z,4.3
2019-03-22T02:24:01.318Z,4.34
2019-03-22T02:25:01.558Z,4.34
2019-03-22T02:26:01.045Z,4.4
2019-03-22T02:27:01.543Z,4.41
2019-03-22T02:28:08.592Z,4.5
2019-03-22T02:29:01.547Z,4.44
2019-03-22T02:30:01.506Z,4.37
2019-03-22T02:31:01.258Z,4.32
2019-03-22T02:32:00.995Z,4.31
2019-03-22T02:33:01.498Z,4.26
2019-03-22T02:34:01.487Z,4.24
2019-03-22T02:35:01.590Z,4.24
2019-03-22T02:36:01.211Z,4.13
2019-03-22T02:37:01.215Z,4.19
2019-03-22T02:38:01.188Z,4.22
2019-03-22T02:39:00.916Z,4.24
2019-03-22T02:40:01.413Z,4.12
2019-03-22T02:41:01.176Z,4.14
2019-03-22T02:42:01.398Z,4.19
2019-03-22T02:43:01.150Z,4.19
2019-03-22T02:44:01.364Z,4.08
2019-03-22T02:45:01.116Z,4.1
2019-03-22T02:46:01.360Z,4.06
2019-03-22T02:47:01.350Z,4.05
2019-03-22T02:48:01.083Z,4.04
2019-03-22T02:49:01.328Z,4.05
2019-03-22T02:50:11.568Z,4.02
2019-03-22T02:51:01.384Z,3.98
2019-03-22T02:52:01.333Z,3.99
2019-03-22T02:53:01.312Z,3.88
2019-03-22T02:54:01.354Z,3.95
2019-03-22T02:55:01.009Z,3.98
2019-03-22T02:56:01.601Z,3.98
2019-03-22T02:57:01.256Z,3.87
2019-03-22T02:58:01.301Z,4.01
2019-03-22T02:59:04.220Z,3.99
2019-03-22T03:00:01.226Z,4.01
2019-03-22T03:01:01.236Z,4.04
2019-03-22T03:02:01.190Z,3.98
2019-03-22T03:03:01.192Z,3.96
2019-03-22T03:04:01.170Z,4.04
2019-03-22T03:05:00.921Z,4.06
2019-03-22T03:06:00.948Z,4.02
2019-03-22T03:07:00.919Z,4.02
2019-03-22T03:08:01.174Z,4.02
2019-03-22T03:09:00.874Z,4.05
2019-03-22T03:10:00.880Z,4.05
2019-03-22T03:11:00.609Z,4.12
2019-03-22T03:12:01.094Z,4.04
2019-03-22T03:13:00.629Z,4.01
2019-03-22T03:14:00.596Z,4.06
2019-03-22T03:15:01.083Z,4.04
2019-03-22T03:16:00.566Z,4.01
2019-03-22T03:17:01.072Z,3.96
2019-03-22T03:18:00.790Z,3.94
2019-03-22T03:19:01.029Z,3.99
2019-03-22T03:20:00.554Z,4.02
2019-03-22T03:21:00.755Z,3.99
2019-03-22T03:22:00.994Z,4.06
2019-03-22T03:23:00.734Z,4.06
2019-03-22T03:24:00.722Z,4.04
2019-03-22T03:25:00.987Z,4.06
2019-03-22T03:26:00.947Z,3.99
2019-03-22T03:27:00.942Z,4.06
2019-03-22T03:28:00.953Z,4.01
2019-03-22T03:29:00.983Z,4.06
2019-03-22T03:30:01.720Z,3.99
2019-03-22T03:31:00.911Z,3.94
2019-03-22T03:32:00.980Z,3.98
2019-03-22T03:33:00.887Z,4.02
2019-03-22T03:34:00.921Z,3.99
2019-03-22T03:35:02.031Z,3.95
2019-03-22T03:36:00.605Z,4.02
2019-03-22T03:37:00.842Z,3.98
2019-03-22T03:38:00.823Z,3.8
2019-03-22T03:39:00.834Z,3.98
2019-03-22T03:40:00.812Z,3.95
2019-03-22T03:41:00.548Z,3.95
2019-03-22T03:42:00.807Z,4.01
2019-03-22T03:43:00.801Z,4.02
2019-03-22T03:44:00.767Z,4.01
2019-03-22T03:45:00.491Z,4.06
2019-03-22T03:46:00.495Z,4.05
2019-03-22T03:47:00.493Z,4.04
2019-03-22T03:48:00.489Z,4.05
2019-03-22T03:49:00.722Z,4.05
2019-03-22T03:50:00.711Z,4.02
2019-03-22T03:51:00.457Z,4.01
2019-03-22T03:52:00.692Z,3.84
2019-03-22T03:53:00.451Z,3.86
2019-03-22T03:54:00.687Z,3.81
2019-03-22T03:55:00.557Z,3.77
2019-03-22T03:56:00.651Z,3.78
2019-03-22T03:57:00.733Z,3.76
2019-03-22T03:58:00.634Z,3.83
2019-03-22T03:59:00.614Z,3.77
2019-03-22T04:00:00.625Z,3.73
2019-03-22T04:01:00.343Z,3.77
2019-03-22T04:02:00.092Z,3.78
2019-03-22T04:03:00.598Z,3.68
2019-03-22T04:04:00.336Z,3.74
2019-03-22T04:05:00.558Z,3.69
2019-03-22T04:06:00.063Z,3.7
2019-03-22T04:07:00.044Z,3.7
2019-03-22T04:08:00.047Z,3.69
2019-03-22T04:09:00.283Z,3.68
2019-03-22T04:10:00.630Z,3.66
2019-03-22T04:11:00.510Z,3.63
2019-03-22T04:12:00.238Z,3.73
2019-03-22T04:13:00.255Z,3.62
2019-03-22T04:14:00.470Z,3.65
2019-03-22T04:15:00.494Z,3.6
2019-03-22T04:16:00.203Z,3.62
2019-03-22T04:16:59.926Z,3.6
2019-03-22T04:18:00.418Z,3.56
2019-03-22T04:19:00.404Z,3.56
2019-03-22T04:20:00.495Z,3.48
2019-03-22T04:21:00.392Z,3.51
2019-03-22T04:22:00.166Z,3.51
2019-03-22T04:23:00.382Z,3.56
2019-03-22T04:23:59.859Z,3.44
2019-03-22T04:25:00.525Z,3.48
2019-03-22T04:26:00.342Z,3.58
2019-03-22T04:27:00.074Z,3.59
2019-03-22T04:28:00.344Z,3.62
2019-03-22T04:29:12.218Z,3.6
2019-03-22T04:30:00.542Z,3.59
2019-03-22T04:31:00.293Z,3.62
2019-03-22T04:32:00.270Z,3.58
2019-03-22T04:33:00.253Z,3.59
2019-03-22T04:33:59.745Z,3.62
2019-03-22T04:35:00.538Z,3.6
2019-03-22T04:36:00.687Z,3.62
2019-03-22T04:37:00.230Z,3.63
2019-03-22T04:38:00.216Z,3.6
2019-03-22T04:39:00.204Z,3.63
2019-03-22T04:39:59.937Z,3.68
2019-03-22T04:41:00.185Z,3.51
2019-03-22T04:42:00.173Z,3.55
2019-03-22T04:42:59.915Z,3.47
2019-03-22T04:43:59.907Z,3.58
2019-03-22T04:45:00.323Z,3.59
2019-03-22T04:45:59.895Z,3.6
2019-03-22T04:47:00.112Z,3.56
2019-03-22T04:48:00.112Z,3.6
2019-03-22T04:49:00.083Z,3.58
2019-03-22T04:50:00.244Z,3.59
2019-03-22T04:50:59.823Z,3.5
2019-03-22T04:51:59.819Z,3.5
2019-03-22T04:53:00.040Z,3.48
2019-03-22T04:53:59.793Z,3.48
2019-03-22T04:55:00.030Z,3.5
2019-03-22T04:56:00.031Z,3.58
2019-03-22T04:57:00.002Z,3.41
2019-03-22T04:57:59.752Z,3.42
2019-03-22T04:58:59.983Z,3.42
2019-03-22T04:59:59.975Z,3.44
2019-03-22T05:00:59.964Z,3.42
2019-03-22T05:01:59.712Z,3.41
2019-03-22T05:02:59.946Z,3.45
2019-03-22T05:04:01.512Z,3.42
2019-03-22T05:04:59.928Z,3.42
2019-03-22T05:05:59.919Z,3.53
2019-03-22T05:06:59.405Z,3.47
2019-03-22T05:07:59.889Z,3.42
2019-03-22T05:08:59.876Z,3.41
2019-03-22T05:09:59.868Z,3.5
2019-03-22T05:10:59.915Z,3.48
2019-03-22T05:11:59.839Z,3.47
2019-03-22T05:12:59.600Z,3.48
2019-03-22T05:13:59.820Z,3.59
2019-03-22T05:14:59.810Z,3.53
2019-03-22T05:15:59.804Z,3.55
2019-03-22T05:16:59.801Z,3.58
2019-03-22T05:17:59.790Z,3.6
2019-03-22T05:18:59.776Z,3.59
2019-03-22T05:19:59.765Z,3.58
2019-03-22T05:20:59.510Z,3.58
2019-03-22T05:21:59.724Z,3.59
2019-03-22T05:22:59.729Z,3.58
2019-03-22T05:23:59.713Z,3.63
2019-03-22T05:24:59.473Z,3.63
2019-03-22T05:25:59.684Z,3.56
2019-03-22T05:26:59.228Z,3.51
2019-03-22T05:27:59.661Z,3.6
2019-03-22T05:28:59.654Z,3.58
2019-03-22T05:29:59.401Z,3.68
2019-03-22T05:30:59.393Z,3.74
2019-03-22T05:31:59.375Z,3.76
2019-03-22T05:32:59.615Z,3.77
2019-03-22T05:33:59.607Z,3.74
2019-03-22T05:34:59.105Z,3.78
2019-03-22T05:36:00.397Z,3.76
2019-03-22T05:36:59.569Z,3.76
2019-03-22T05:37:59.568Z,3.76
2019-03-22T05:38:59.327Z,3.78
2019-03-22T05:39:59.545Z,3.76
2019-03-22T05:40:59.540Z,3.78
2019-03-22T05:41:59.517Z,3.7
2019-03-22T05:42:59.508Z,3.69
2019-03-22T05:43:59.270Z,3.84
2019-03-22T05:44:59.512Z,3.84
2019-03-22T05:45:59.248Z,3.84
2019-03-22T05:46:58.987Z,3.78
2019-03-22T05:47:59.211Z,3.84
2019-03-22T05:48:58.988Z,3.88
2019-03-22T05:49:59.223Z,3.87
2019-03-22T05:50:59.444Z,3.83
2019-03-22T05:51:59.416Z,3.87
2019-03-22T05:52:59.446Z,3.87
2019-03-22T05:53:58.913Z,3.87
2019-03-22T05:54:59.396Z,3.94
2019-03-22T05:55:59.136Z,4.01
2019-03-22T05:56:59.375Z,3.96
2019-03-22T05:57:59.370Z,4.1
2019-03-22T05:58:59.113Z,4.08
2019-03-22T05:59:59.354Z,4.05
2019-03-22T06:00:59.098Z,4.14
2019-03-22T06:01:59.097Z,4.08
2019-03-22T06:02:59.316Z,4.22
2019-03-22T06:03:59.312Z,4.19
2019-03-22T06:04:59.285Z,4.16
2019-03-22T06:05:59.033Z,4.23
2019-03-22T06:06:59.027Z,4.28
2019-03-22T06:07:59.019Z,4.23
2019-03-22T06:08:59.345Z,4.22
2019-03-22T06:09:59.006Z,4.24
2019-03-22T06:10:59.229Z,4.24
2019-03-22T06:11:59.215Z,4.31
2019-03-22T06:12:58.964Z,4.24
2019-03-22T06:13:58.954Z,4.19
2019-03-22T06:14:58.940Z,4.24
2019-03-22T06:15:58.931Z,4.34
2019-03-22T06:16:59.171Z,4.45
2019-03-22T06:17:59.171Z,4.48
2019-03-22T06:18:59.174Z,4.53
2019-03-22T06:19:58.903Z,4.6
2019-03-22T06:20:58.879Z,4.6
2019-03-22T06:21:58.870Z,4.62
2019-03-22T06:22:59.112Z,4.68
2019-03-22T06:23:59.119Z,4.67
2019-03-22T06:24:59.106Z,4.78
2019-03-22T06:25:58.862Z,4.82
2019-03-22T06:26:59.077Z,4.8
2019-03-22T06:27:59.057Z,4.94
2019-03-22T06:28:59.059Z,4.84
2019-03-22T06:29:59.567Z,4.93
2019-03-22T06:30:59.034Z,4.93
2019-03-22T06:31:58.776Z,4.84
2019-03-22T06:32:59.021Z,4.87
2019-03-22T06:33:58.995Z,4.92
2019-03-22T06:34:58.991Z,4.92
2019-03-22T06:35:58.984Z,4.94
2019-03-22T06:36:59.236Z,5.02
2019-03-22T06:37:58.964Z,5.04
2019-03-22T06:38:58.953Z,4.97
2019-03-22T06:39:58.705Z,4.99
2019-03-22T06:40:58.942Z,5.04
2019-03-22T06:41:58.697Z,5.05
2019-03-22T06:42:58.919Z,5.05
2019-03-22T06:43:58.909Z,5.11
2019-03-22T06:44:58.910Z,5.1
2019-03-22T06:45:58.655Z,5.14
2019-03-22T06:46:58.904Z,4.99
2019-03-22T06:47:58.879Z,5.04
2019-03-22T06:48:58.612Z,5.1
2019-03-22T06:49:58.611Z,5.1
2019-03-22T06:50:58.850Z,5.11
2019-03-22T06:51:58.832Z,5.17
2019-03-22T06:52:58.593Z,5.11
2019-03-22T06:53:58.826Z,5.33
2019-03-22T06:54:58.800Z,5.41
2019-03-22T06:55:58.801Z,5.39
2019-03-22T06:56:58.791Z,5.43
2019-03-22T06:57:58.804Z,5.48
2019-03-22T06:58:58.861Z,5.5
2019-03-22T07:00:10.562Z,5.68
2019-03-22T07:00:58.768Z,5.73
2019-03-22T07:01:58.504Z,5.97
2019-03-22T07:02:58.743Z,6.26
2019-03-22T07:03:58.729Z,6.54
2019-03-22T07:04:58.480Z,6.75
2019-03-22T07:05:58.470Z,7.11
2019-03-22T07:06:58.713Z,7.45
2019-03-22T07:07:58.210Z,7.76
2019-03-22T07:08:58.443Z,7.9
2019-03-22T07:09:58.692Z,8.09
2019-03-22T07:10:58.443Z,8.27
2019-03-22T07:11:58.677Z,8.69
2019-03-22T07:12:58.194Z,9.13
2019-03-22T07:13:58.678Z,9.77
2019-03-22T07:14:58.449Z,10.26
2019-03-22T07:15:58.668Z,10.93
2019-03-22T07:17:01.331Z,11.37
2019-03-22T07:17:58.406Z,11.77
2019-03-22T07:18:58.393Z,12.25
2019-03-22T07:19:58.637Z,12.49
2019-03-22T07:20:58.405Z,12.67
2019-03-22T07:21:58.131Z,12.67
2019-03-22T07:22:58.627Z,12.76
2019-03-22T07:23:58.643Z,12.75
2019-03-22T07:24:58.626Z,12.8
2019-03-22T07:25:58.423Z,12.95
2019-03-22T07:26:58.445Z,13.16
2019-03-22T07:27:58.639Z,13.23
2019-03-22T07:28:58.371Z,13.49
2019-03-22T07:29:58.649Z,13.57
2019-03-22T07:30:58.661Z,13.99
2019-03-22T07:31:58.377Z,14.05
2019-03-22T07:32:58.115Z,14.32
2019-03-22T07:33:58.645Z,14.54
2019-03-22T07:34:58.390Z,14.62
2019-03-22T07:35:58.381Z,14.55
2019-03-22T07:36:58.621Z,14.79
2019-03-22T07:37:58.630Z,15.07
2019-03-22T07:38:58.621Z,15.21
2019-03-22T07:39:58.634Z,15.44
2019-03-22T07:40:58.613Z,15.67
2019-03-22T07:41:58.374Z,15.75
2019-03-22T07:42:58.426Z,15.73
2019-03-22T07:43:58.115Z,15.61
2019-03-22T07:44:58.631Z,15.46
2019-03-22T07:45:58.132Z,15.51
2019-03-22T07:46:58.623Z,15.61
2019-03-22T07:48:00.731Z,15.82
2019-03-22T07:48:58.622Z,15.83
2019-03-22T07:49:58.158Z,15.62
2019-03-22T07:50:58.620Z,15.44
2019-03-22T07:51:58.385Z,15.4
2019-03-22T07:52:58.389Z,15.28
2019-03-22T07:53:58.622Z,15.44
2019-03-22T07:54:58.138Z,15.65
2019-03-22T07:55:58.393Z,15.82
2019-03-22T07:56:58.625Z,15.84
2019-03-22T07:57:58.387Z,15.94
2019-03-22T07:58:58.388Z,16.1
2019-03-22T07:59:58.391Z,16.29
2019-03-22T08:00:58.392Z,16.31
2019-03-22T08:01:58.629Z,16.54
2019-03-22T08:02:58.644Z,16.6
2019-03-22T08:03:58.631Z,16.51
2019-03-22T08:04:58.689Z,16.5
2019-03-22T08:05:58.394Z,16.71
2019-03-22T08:07:01.114Z,16.83
2019-03-22T08:08:00.706Z,16.99
2019-03-22T08:08:58.415Z,17.02
2019-03-22T08:09:58.792Z,16.78
2019-03-22T08:10:58.438Z,16.79
2019-03-22T08:11:58.418Z,16.87
2019-03-22T08:12:58.677Z,16.83
2019-03-22T08:13:58.466Z,16.93
2019-03-22T08:14:58.206Z,16.81
2019-03-22T08:15:59.864Z,16.86
2019-03-22T08:16:58.773Z,16.78
2019-03-22T08:17:59.748Z,16.94
2019-03-22T08:18:58.664Z,17.06
2019-03-22T08:19:59.857Z,17.16
2019-03-22T08:20:58.512Z,17.3
2019-03-22T08:21:58.703Z,17.14
2019-03-22T08:22:58.476Z,17.09
2019-03-22T08:23:58.702Z,17.02
2019-03-22T08:24:58.737Z,16.93
2019-03-22T08:25:58.687Z,16.69
2019-03-22T08:26:58.679Z,16.16
2019-03-22T08:27:58.683Z,15.49
2019-03-22T08:28:58.678Z,14.84
2019-03-22T08:29:58.463Z,14.32
2019-03-22T08:30:58.689Z,13.86
2019-03-22T08:31:58.752Z,13.5
2019-03-22T08:32:58.493Z,13.01
2019-03-22T08:33:58.208Z,12.65
2019-03-22T08:34:58.513Z,12.4
2019-03-22T08:35:58.485Z,12.22
2019-03-22T08:36:58.446Z,12.03
2019-03-22T08:37:58.739Z,11.84
2019-03-22T08:38:58.549Z,11.73
2019-03-22T08:40:00.873Z,11.75
2019-03-22T08:40:58.736Z,11.57
2019-03-22T08:41:58.754Z,11.57
2019-03-22T08:42:58.448Z,11.54
2019-03-22T08:43:58.457Z,11.51
2019-03-22T08:44:58.690Z,11.44
2019-03-22T08:45:58.443Z,11.44
2019-03-22T08:46:58.485Z,11.36
2019-03-22T08:47:58.502Z,11.45
2019-03-22T08:48:58.521Z,11.5
2019-03-22T08:49:58.438Z,11.5
2019-03-22T08:50:58.761Z,11.59
2019-03-22T08:51:58.463Z,11.6
2019-03-22T08:52:58.685Z,11.72
2019-03-22T08:54:00.476Z,11.91
2019-03-22T08:54:58.489Z,11.9
2019-03-22T08:55:58.446Z,11.99
2019-03-22T08:56:58.692Z,12
2019-03-22T08:57:58.721Z,12.04
2019-03-22T08:58:58.720Z,12.13
2019-03-22T08:59:58.439Z,12.22
2019-03-22T09:01:02.546Z,12.25
2019-03-22T09:01:58.475Z,12.22
2019-03-22T09:02:58.509Z,12.24
2019-03-22T09:03:58.432Z,12.17
2019-03-22T09:04:58.719Z,12.27
2019-03-22T09:05:58.379Z,12.2
2019-03-22T09:07:01.350Z,12.15
2019-03-22T09:07:58.962Z,12.32
2019-03-22T09:08:58.433Z,12.28
2019-03-22T09:09:58.688Z,12.45
2019-03-22T09:10:58.636Z,12.54
2019-03-22T09:11:58.776Z,12.6
2019-03-22T09:12:58.949Z,12.65
2019-03-22T09:13:58.693Z,12.73
2019-03-22T09:14:58.727Z,12.78
2019-03-22T09:15:58.446Z,12.79
2019-03-22T09:16:58.196Z,12.79
2019-03-22T09:17:58.416Z,12.86
2019-03-22T09:18:58.617Z,12.91
2019-03-22T09:19:58.135Z,13.01
2019-03-22T09:20:58.434Z,13.16
2019-03-22T09:21:59.709Z,13.18
2019-03-22T09:22:58.687Z,13.28
2019-03-22T09:23:58.667Z,13.27
2019-03-22T09:24:58.589Z,13.39
2019-03-22T09:25:58.368Z,13.44
2019-03-22T09:26:58.569Z,13.59
2019-03-22T09:27:58.383Z,13.65
2019-03-22T09:28:58.600Z,13.87
2019-03-22T09:29:58.586Z,13.83
2019-03-22T09:31:09.735Z,13.7
2019-03-22T09:31:58.431Z,13.54
2019-03-22T09:32:58.655Z,13.42
2019-03-22T09:33:58.358Z,13.22
2019-03-22T09:34:59.749Z,12.98
2019-03-22T09:35:58.350Z,12.98
2019-03-22T09:36:58.444Z,12.93
2019-03-22T09:37:58.344Z,12.94
2019-03-22T09:38:58.318Z,12.97
2019-03-22T09:39:58.319Z,12.94
2019-03-22T09:40:58.552Z,13.2
2019-03-22T09:41:58.320Z,13.31
2019-03-22T09:42:58.381Z,13.46
2019-03-22T09:43:58.382Z,13.71
2019-03-22T09:44:58.637Z,13.83
2019-03-22T09:45:58.296Z,13.93
2019-03-22T09:46:58.309Z,14.08
2019-03-22T09:47:58.561Z,14.12
2019-03-22T09:48:58.524Z,14.26
2019-03-22T09:49:58.627Z,14.37
2019-03-22T09:50:58.599Z,14.33
2019-03-22T09:52:00.104Z,14.47
2019-03-22T09:52:58.603Z,14.54
2019-03-22T09:53:58.348Z,14.58
2019-03-22T09:54:58.322Z,14.58
2019-03-22T09:55:58.539Z,14.59
2019-03-22T09:56:58.586Z,14.65
2019-03-22T09:57:58.570Z,14.82
2019-03-22T09:58:58.540Z,14.89
2019-03-22T09:59:58.289Z,14.89
2019-03-22T10:00:58.319Z,14.94
2019-03-22T10:01:58.331Z,15
2019-03-22T10:02:58.319Z,15.03
2019-03-22T10:03:58.296Z,15.14
2019-03-22T10:04:58.530Z,15.18
2019-03-22T10:05:58.648Z,15.15
2019-03-22T10:06:58.501Z,15.11
2019-03-22T10:07:58.640Z,15.19
2019-03-22T10:08:59.432Z,15.21
2019-03-22T10:09:58.340Z,15.27
2019-03-22T10:10:58.303Z,15.28
2019-03-22T10:11:58.264Z,15.27
2019-03-22T10:12:58.350Z,15.22
2019-03-22T10:13:58.255Z,15.18
2019-03-22T10:14:58.536Z,15.31
2019-03-22T10:15:58.315Z,15.28
2019-03-22T10:16:58.429Z,15.4
2019-03-22T10:17:58.397Z,15.35
2019-03-22T10:18:58.524Z,15.33
2019-03-22T10:19:58.619Z,15.39
2019-03-22T10:20:58.255Z,15.42
2019-03-22T10:21:58.260Z,15.46
2019-03-22T10:22:58.536Z,15.43
2019-03-22T10:23:58.350Z,15.57
2019-03-22T10:24:58.330Z,15.44
2019-03-22T10:25:58.500Z,15.51
2019-03-22T10:26:58.268Z,15.55
2019-03-22T10:27:58.267Z,15.58
2019-03-22T10:28:58.531Z,15.62
2019-03-22T10:29:58.541Z,15.65
2019-03-22T10:30:58.521Z,15.67
2019-03-22T10:31:58.349Z,15.65
2019-03-22T10:32:58.036Z,15.7
2019-03-22T10:33:58.029Z,15.75
2019-03-22T10:34:58.062Z,15.8
2019-03-22T10:35:58.293Z,15.86
2019-03-22T10:36:58.682Z,15.8
2019-03-22T10:38:30.618Z,15.8
2019-03-22T10:38:58.284Z,15.73
2019-03-22T10:39:57.997Z,15.73
2019-03-22T10:40:58.367Z,15.62
2019-03-22T10:41:58.528Z,15.55
2019-03-22T10:42:58.325Z,15.46
2019-03-22T10:43:58.373Z,15.28
2019-03-22T10:44:58.569Z,15.09
2019-03-22T10:45:58.528Z,14.88
2019-03-22T10:46:58.212Z,14.85
2019-03-22T10:47:58.687Z,14.73
2019-03-22T10:48:58.242Z,14.77
2019-03-22T10:49:58.194Z,14.85
2019-03-22T10:50:58.457Z,14.97
2019-03-22T10:52:04.534Z,14.96
2019-03-22T10:52:58.459Z,15.07
2019-03-22T10:53:58.343Z,15.18
2019-03-22T10:55:12.279Z,15.27
2019-03-22T10:55:58.445Z,15.43
2019-03-22T10:56:58.186Z,15.57
2019-03-22T10:58:00.278Z,15.77
2019-03-22T10:58:58.486Z,15.86
2019-03-22T10:59:58.184Z,15.88
2019-03-22T11:00:58.433Z,16.09
2019-03-22T11:02:10.285Z,16.09
2019-03-22T11:02:58.446Z,16.12
2019-03-22T11:03:58.621Z,16.17
2019-03-22T11:04:58.203Z,16.29
2019-03-22T11:05:58.432Z,16.42
2019-03-22T11:06:58.439Z,16.5
2019-03-22T11:07:58.435Z,16.57
2019-03-22T11:08:58.696Z,16.69
2019-03-22T11:09:58.416Z,16.78
2019-03-22T11:10:57.946Z,16.87
2019-03-22T11:11:58.169Z,16.86
2019-03-22T11:12:58.424Z,16.86
2019-03-22T11:13:58.423Z,16.84
2019-03-22T11:14:58.183Z,16.89
2019-03-22T11:15:58.428Z,16.83
2019-03-22T11:16:58.192Z,16.83
2019-03-22T11:17:58.183Z,16.83
2019-03-22T11:18:58.166Z,16.81
2019-03-22T11:19:59.941Z,16.75
2019-03-22T11:21:07.356Z,16.74
2019-03-22T11:21:58.422Z,16.81
2019-03-22T11:22:58.419Z,16.81
2019-03-22T11:23:58.429Z,16.75
2019-03-22T11:24:58.165Z,16.81
2019-03-22T11:26:08.418Z,16.71
2019-03-22T11:26:58.176Z,16.65
2019-03-22T11:27:58.173Z,16.74
2019-03-22T11:28:58.421Z,16.71
2019-03-22T11:29:57.945Z,16.75
2019-03-22T11:31:07.010Z,16.9
2019-03-22T11:31:58.195Z,16.89
2019-03-22T11:32:58.402Z,17.04
2019-03-22T11:33:57.924Z,17.11
2019-03-22T11:34:58.408Z,17.16
2019-03-22T11:35:57.920Z,17.29
2019-03-22T11:36:57.917Z,17.2
2019-03-22T11:37:58.173Z,17.29
2019-03-22T11:38:58.969Z,17.33
2019-03-22T11:39:58.175Z,17.45
2019-03-22T11:40:57.911Z,17.39
2019-03-22T11:41:58.414Z,17.36
2019-03-22T11:43:07.958Z,17.29
2019-03-22T11:43:58.431Z,17.2
2019-03-22T11:44:58.416Z,16.99
2019-03-22T11:45:57.919Z,16.91
2019-03-22T11:46:57.931Z,16.89
2019-03-22T11:47:58.875Z,16.97
2019-03-22T11:48:58.168Z,17.05
2019-03-22T11:49:58.162Z,17.22
2019-03-22T11:50:58.414Z,17.41
2019-03-22T11:51:58.404Z,17.39
2019-03-22T11:52:57.923Z,17.54
2019-03-22T11:53:58.412Z,17.68
2019-03-22T11:54:58.418Z,17.82
2019-03-22T11:55:58.433Z,17.95
2019-03-22T11:56:58.413Z,18.07
2019-03-22T11:57:58.415Z,18
2019-03-22T11:58:58.174Z,18.11
2019-03-22T11:59:58.173Z,18.13
2019-03-22T12:00:58.410Z,18.26
2019-03-22T12:01:58.433Z,18.23
2019-03-22T12:02:58.441Z,18.26
2019-03-22T12:03:58.422Z,18.29
2019-03-22T12:04:57.918Z,18.29
2019-03-22T12:05:58.417Z,18.28
2019-03-22T12:06:58.161Z,18.33
2019-03-22T12:07:57.923Z,18.34
2019-03-22T12:08:58.662Z,18.26
2019-03-22T12:09:58.167Z,18.1
2019-03-22T12:10:58.418Z,18.11
2019-03-22T12:11:58.416Z,18.11
2019-03-22T12:12:57.925Z,18.15
2019-03-22T12:13:57.921Z,18.18
2019-03-22T12:14:58.162Z,18.16
2019-03-22T12:15:58.412Z,18.18
2019-03-22T12:16:59.221Z,18.2
2019-03-22T12:17:58.191Z,18.26
2019-03-22T12:18:58.170Z,18.25
2019-03-22T12:19:58.470Z,18.29
2019-03-22T12:20:59.088Z,18.33
2019-03-22T12:21:58.417Z,18.45
2019-03-22T12:22:58.169Z,18.58
2019-03-22T12:23:58.169Z,18.65
2019-03-22T12:24:58.415Z,18.66
2019-03-22T12:25:58.451Z,18.71
2019-03-22T12:26:58.427Z,18.68
2019-03-22T12:27:58.215Z,18.6
2019-03-22T12:28:58.420Z,18.49
2019-03-22T12:29:58.183Z,18.49
2019-03-22T12:30:58.179Z,18.43
2019-03-22T12:31:58.444Z,18.38
2019-03-22T12:32:58.187Z,18.5
2019-03-22T12:33:58.430Z,18.38
2019-03-22T12:34:58.431Z,18.35
2019-03-22T12:35:58.431Z,18.37
2019-03-22T12:36:58.177Z,18.53
2019-03-22T12:38:00.211Z,18.59
2019-03-22T12:38:58.438Z,18.65
2019-03-22T12:39:58.434Z,18.75
2019-03-22T12:40:58.459Z,18.83
2019-03-22T12:41:58.429Z,18.93
2019-03-22T12:42:59.159Z,19
2019-03-22T12:43:58.428Z,18.96
2019-03-22T12:44:58.207Z,18.95
2019-03-22T12:45:58.457Z,18.92
2019-03-22T12:46:58.184Z,18.88
2019-03-22T12:47:58.461Z,18.83
2019-03-22T12:48:58.436Z,18.75
2019-03-22T12:49:58.428Z,18.83
2019-03-22T12:50:58.202Z,18.71
2019-03-22T12:51:57.947Z,18.8
2019-03-22T12:52:58.441Z,18.81
2019-03-22T12:53:58.436Z,18.83
2019-03-22T12:54:58.223Z,18.84
2019-03-22T12:55:58.445Z,18.95
2019-03-22T12:56:58.450Z,19.02
2019-03-22T12:57:59.475Z,19.09
2019-03-22T12:58:58.210Z,19.12
2019-03-22T12:59:57.949Z,19.14
2019-03-22T13:00:57.950Z,19.12
2019-03-22T13:01:58.448Z,19.15
2019-03-22T13:02:58.201Z,19.16
2019-03-22T13:03:58.447Z,19.26
2019-03-22T13:04:58.457Z,19.34
2019-03-22T13:05:58.457Z,19.36
2019-03-22T13:06:58.211Z,19.36
2019-03-22T13:07:58.472Z,19.36
2019-03-22T13:08:58.404Z,19.37